createdAt,value
2019-03-06T00:00:00.653Z,7.78
2019-03-06T00:01:00.621Z,7.72
2019-03-06T00:02:00.614Z,7.82
2019-03-06T00:03:00.599Z,7.77
2019-03-06T00:04:00.610Z,7.75
2019-03-06T00:05:00.601Z,7.72
2019-03-06T00:06:00.563Z,7.77
2019-03-06T00:07:00.554Z,7.81
2019-03-06T00:08:00.541Z,7.74
2019-03-06T00:09:00.530Z,7.81
2019-03-06T00:10:00.620Z,7.82
2019-03-06T00:11:00.507Z,7.71
2019-03-06T00:12:00.495Z,7.66
2019-03-06T00:13:00.487Z,7.82
2019-03-06T00:14:00.476Z,7.79
2019-03-06T00:15:00.486Z,7.81
2019-03-06T00:16:00.464Z,7.82
2019-03-06T00:17:00.442Z,7.81
2019-03-06T00:18:00.475Z,7.87
2019-03-06T00:19:00.424Z,7.79
2019-03-06T00:20:00.432Z,7.81
2019-03-06T00:21:00.402Z,7.78
2019-03-06T00:22:00.397Z,7.79
2019-03-06T00:23:02.059Z,7.77
2019-03-06T00:24:00.364Z,7.79
2019-03-06T00:25:00.376Z,7.75
2019-03-06T00:26:00.347Z,7.77
2019-03-06T00:27:00.329Z,7.74
2019-03-06T00:28:00.355Z,7.79
2019-03-06T00:29:00.307Z,7.82
2019-03-06T00:30:00.372Z,7.78
2019-03-06T00:31:00.308Z,7.78
2019-03-06T00:32:00.274Z,7.79
2019-03-06T00:33:00.266Z,7.77
2019-03-06T00:34:00.267Z,7.77
2019-03-06T00:35:00.265Z,7.75
2019-03-06T00:36:00.230Z,7.81
2019-03-06T00:37:00.218Z,7.81
2019-03-06T00:38:00.208Z,7.82
2019-03-06T00:39:00.196Z,7.81
2019-03-06T00:40:00.368Z,7.74
2019-03-06T00:41:00.183Z,7.79
2019-03-06T00:42:00.164Z,7.81
2019-03-06T00:43:00.151Z,7.89
2019-03-06T00:44:00.147Z,7.90
2019-03-06T00:45:00.326Z,7.93
2019-03-06T00:46:00.132Z,7.89
2019-03-06T00:47:00.108Z,7.92
2019-03-06T00:48:00.094Z,7.93
2019-03-06T00:49:00.084Z,7.96
2019-03-06T00:50:00.177Z,8.07
2019-03-06T00:51:00.088Z,8.04
2019-03-06T00:52:00.078Z,7.99
2019-03-06T00:53:00.039Z,8.07
2019-03-06T00:54:00.029Z,7.99
2019-03-06T00:55:00.018Z,8.04
2019-03-06T00:56:00.030Z,8.03
2019-03-06T00:56:59.995Z,7.97
2019-03-06T00:58:00.024Z,7.94
2019-03-06T00:58:59.974Z,7.97
2019-03-06T00:59:59.960Z,7.97
2019-03-06T01:00:59.976Z,7.99
2019-03-06T01:01:59.939Z,8.00
2019-03-06T01:02:59.929Z,8.04
2019-03-06T01:03:59.935Z,8.02
2019-03-06T01:04:59.910Z,8.03
2019-03-06T01:05:59.919Z,8.04
2019-03-06T01:06:59.881Z,8.08
2019-03-06T01:07:59.871Z,8.02
2019-03-06T01:08:59.866Z,8.00
2019-03-06T01:09:59.875Z,8.00
2019-03-06T01:10:59.866Z,7.96
2019-03-06T01:11:59.827Z,7.96
2019-03-06T01:12:59.817Z,7.89
2019-03-06T01:13:59.802Z,7.93
2019-03-06T01:14:59.791Z,7.87
2019-03-06T01:15:59.836Z,7.94
2019-03-06T01:16:59.769Z,7.92
2019-03-06T01:17:59.758Z,7.94
2019-03-06T01:18:59.746Z,7.99
2019-03-06T01:19:59.737Z,8.00
2019-03-06T01:20:59.752Z,8.00
2019-03-06T01:21:59.736Z,8.00
2019-03-06T01:22:59.703Z,8.00
2019-03-06T01:23:59.691Z,7.97
2019-03-06T01:24:59.679Z,7.89
2019-03-06T01:25:59.693Z,7.89
2019-03-06T01:26:59.659Z,7.89
2019-03-06T01:27:59.665Z,7.84
2019-03-06T01:28:59.636Z,7.92
2019-03-06T01:29:59.627Z,7.87
2019-03-06T01:30:59.650Z,7.82
2019-03-06T01:31:59.624Z,7.90
2019-03-06T01:32:59.594Z,7.89
2019-03-06T01:33:59.603Z,7.78
2019-03-06T01:34:59.573Z,7.90
2019-03-06T01:35:59.582Z,7.78
2019-03-06T01:36:59.544Z,7.90
2019-03-06T01:37:59.534Z,7.87
2019-03-06T01:38:59.523Z,7.78
2019-03-06T01:39:59.536Z,7.78
2019-03-06T01:40:59.529Z,7.77
2019-03-06T01:41:59.512Z,7.87
2019-03-06T01:42:59.476Z,7.87
2019-03-06T01:43:59.468Z,7.81
2019-03-06T01:44:59.458Z,7.77
2019-03-06T01:45:59.465Z,7.84
2019-03-06T01:46:59.457Z,7.89
2019-03-06T01:47:59.422Z,7.77
2019-03-06T01:48:59.413Z,7.84
2019-03-06T01:49:59.398Z,7.77
2019-03-06T01:50:59.387Z,7.79
2019-03-06T01:51:59.411Z,7.78
2019-03-06T01:52:59.370Z,7.75
2019-03-06T01:53:59.353Z,7.75
2019-03-06T01:54:59.342Z,7.74
2019-03-06T01:55:59.330Z,7.75
2019-03-06T01:56:59.343Z,7.77
2019-03-06T01:57:59.360Z,7.75
2019-03-06T01:58:59.296Z,7.79
2019-03-06T01:59:59.285Z,7.72
2019-03-06T02:00:59.274Z,7.79
2019-03-06T02:01:59.285Z,7.78
2019-03-06T02:02:59.250Z,7.85
2019-03-06T02:03:59.252Z,7.85
2019-03-06T02:04:59.231Z,7.89
2019-03-06T02:05:59.220Z,7.87
2019-03-06T02:06:59.228Z,7.93
2019-03-06T02:07:59.198Z,7.85
2019-03-06T02:08:59.185Z,7.90
2019-03-06T02:09:59.184Z,7.89
2019-03-06T02:10:59.162Z,7.85
2019-03-06T02:11:59.176Z,7.96
2019-03-06T02:12:59.165Z,7.92
2019-03-06T02:13:59.145Z,7.94
2019-03-06T02:14:59.123Z,7.93
2019-03-06T02:15:59.144Z,7.89
2019-03-06T02:16:59.118Z,7.96
2019-03-06T02:17:59.083Z,7.94
2019-03-06T02:18:59.077Z,7.89
2019-03-06T02:19:59.062Z,7.90
2019-03-06T02:20:59.051Z,7.90
2019-03-06T02:21:59.084Z,7.85
2019-03-06T02:22:59.029Z,7.87
2019-03-06T02:23:59.017Z,7.90
2019-03-06T02:24:59.008Z,7.87
2019-03-06T02:25:58.994Z,7.89
2019-03-06T02:26:59.009Z,7.84
2019-03-06T02:27:58.985Z,7.82
2019-03-06T02:28:58.965Z,7.79
2019-03-06T02:29:58.951Z,7.81
2019-03-06T02:30:58.938Z,7.90
2019-03-06T02:31:58.954Z,7.85
2019-03-06T02:32:58.941Z,7.92
2019-03-06T02:33:58.926Z,7.92
2019-03-06T02:34:58.899Z,7.93
2019-03-06T02:35:58.888Z,7.85
2019-03-06T02:36:58.883Z,7.96
2019-03-06T02:37:58.891Z,7.87
2019-03-06T02:38:58.852Z,7.84
2019-03-06T02:39:58.839Z,7.90
2019-03-06T02:40:58.840Z,7.90
2019-03-06T02:41:58.819Z,7.81
2019-03-06T02:42:58.848Z,7.82
2019-03-06T02:43:58.794Z,7.63
2019-03-06T02:44:58.782Z,7.63
2019-03-06T02:45:58.773Z,7.69
2019-03-06T02:46:58.780Z,7.77
2019-03-06T02:47:58.776Z,7.69
2019-03-06T02:48:58.737Z,7.66
2019-03-06T02:49:58.727Z,7.71
2019-03-06T02:50:58.728Z,7.62
2019-03-06T02:51:58.708Z,7.67
2019-03-06T02:52:58.736Z,7.60
2019-03-06T02:53:58.688Z,7.72
2019-03-06T02:54:58.671Z,7.67
2019-03-06T02:55:58.663Z,7.60
2019-03-06T02:56:58.661Z,7.69
2019-03-06T02:57:58.686Z,7.58
2019-03-06T02:58:58.634Z,7.67
2019-03-06T02:59:58.616Z,7.56
2019-03-06T03:00:58.611Z,7.58
2019-03-06T03:01:58.594Z,7.49
2019-03-06T03:02:58.606Z,7.45
2019-03-06T03:03:58.600Z,7.52
2019-03-06T03:04:58.563Z,7.42
2019-03-06T03:05:58.548Z,7.41
2019-03-06T03:06:58.547Z,7.49
2019-03-06T03:07:58.550Z,7.49
2019-03-06T03:08:58.521Z,7.41
2019-03-06T03:09:58.517Z,7.42
2019-03-06T03:10:58.494Z,7.42
2019-03-06T03:11:58.494Z,7.40
2019-03-06T03:12:58.494Z,7.41
2019-03-06T03:13:58.458Z,7.47
2019-03-06T03:14:58.454Z,7.44
2019-03-06T03:15:58.449Z,7.42
2019-03-06T03:16:58.431Z,7.42
2019-03-06T03:17:58.440Z,7.45
2019-03-06T03:18:58.405Z,7.44
2019-03-06T03:19:58.395Z,7.49
2019-03-06T03:20:58.394Z,7.49
2019-03-06T03:21:58.386Z,7.44
2019-03-06T03:22:58.385Z,7.50
2019-03-06T03:23:58.373Z,7.42
2019-03-06T03:24:58.335Z,7.47
2019-03-06T03:25:58.325Z,7.56
2019-03-06T03:26:58.317Z,7.49
2019-03-06T03:27:58.313Z,7.60
2019-03-06T03:28:58.316Z,7.50
2019-03-06T03:29:58.285Z,7.45
2019-03-06T03:30:58.270Z,7.62
2019-03-06T03:31:58.258Z,7.49
2019-03-06T03:32:58.248Z,7.56
2019-03-06T03:33:58.291Z,7.44
2019-03-06T03:34:58.245Z,7.44
2019-03-06T03:35:58.213Z,7.44
2019-03-06T03:36:58.201Z,7.50
2019-03-06T03:37:58.193Z,7.47
2019-03-06T03:38:58.204Z,7.45
2019-03-06T03:39:58.185Z,7.55
2019-03-06T03:40:58.164Z,7.47
2019-03-06T03:41:58.143Z,7.44
2019-03-06T03:42:58.137Z,7.45
2019-03-06T03:43:58.154Z,7.52
2019-03-06T03:44:58.112Z,7.42
2019-03-06T03:45:58.110Z,7.58
2019-03-06T03:46:58.090Z,7.50
2019-03-06T03:47:58.076Z,7.44
2019-03-06T03:48:58.088Z,7.45
2019-03-06T03:49:58.057Z,7.52
2019-03-06T03:50:58.042Z,7.52
2019-03-06T03:51:58.041Z,7.56
2019-03-06T03:52:58.095Z,7.49
2019-03-06T03:53:58.033Z,7.50
2019-03-06T03:54:58.004Z,7.56
2019-03-06T03:55:57.986Z,7.55
2019-03-06T03:56:57.976Z,7.60
2019-03-06T03:57:57.979Z,7.56
2019-03-06T03:58:57.976Z,7.52
2019-03-06T03:59:57.941Z,7.53
2019-03-06T04:00:57.941Z,7.45
2019-03-06T04:01:57.922Z,7.53
2019-03-06T04:02:57.923Z,7.50
2019-03-06T04:03:57.937Z,7.50
2019-03-06T04:04:57.888Z,7.47
2019-03-06T04:05:57.874Z,7.44
2019-03-06T04:06:57.863Z,7.40
2019-03-06T04:07:57.850Z,7.49
2019-03-06T04:08:57.866Z,7.45
2019-03-06T04:09:57.847Z,7.42
2019-03-06T04:10:57.823Z,7.44
2019-03-06T04:11:57.818Z,7.49
2019-03-06T04:12:57.800Z,7.34
2019-03-06T04:13:57.811Z,7.27
2019-03-06T04:14:57.781Z,7.34
2019-03-06T04:15:57.796Z,7.40
2019-03-06T04:16:57.760Z,7.32
2019-03-06T04:17:57.739Z,7.35
2019-03-06T04:18:57.732Z,7.37
2019-03-06T04:19:57.743Z,7.32
2019-03-06T04:20:57.706Z,7.27
2019-03-06T04:21:57.713Z,7.24
2019-03-06T04:22:57.685Z,7.26
2019-03-06T04:23:57.673Z,7.27
2019-03-06T04:24:57.684Z,7.29
2019-03-06T04:25:57.657Z,7.27
2019-03-06T04:26:57.637Z,7.31
2019-03-06T04:27:57.648Z,7.22
2019-03-06T04:28:57.621Z,7.20
2019-03-06T04:29:57.627Z,7.16
2019-03-06T04:30:57.596Z,7.23
2019-03-06T04:31:57.585Z,7.16
2019-03-06T04:32:57.574Z,7.19
2019-03-06T04:33:57.566Z,7.16
2019-03-06T04:34:57.570Z,7.17
2019-03-06T04:35:57.535Z,7.15
2019-03-06T04:36:57.528Z,7.09
2019-03-06T04:37:57.513Z,7.13
2019-03-06T04:38:57.513Z,7.12
2019-03-06T04:39:57.513Z,7.09
2019-03-06T04:40:57.485Z,7.15
2019-03-06T04:41:57.467Z,7.12
2019-03-06T04:42:57.460Z,7.07
2019-03-06T04:43:57.446Z,7.12
2019-03-06T04:44:57.467Z,7.12
2019-03-06T04:45:57.428Z,7.13
2019-03-06T04:46:57.413Z,7.19
2019-03-06T04:47:57.397Z,7.20
2019-03-06T04:48:57.388Z,7.23
2019-03-06T04:49:57.403Z,7.12
2019-03-06T04:50:57.377Z,7.09
2019-03-06T04:51:57.354Z,7.19
2019-03-06T04:52:57.343Z,7.15
2019-03-06T04:53:57.331Z,7.12
2019-03-06T04:54:57.343Z,7.04
2019-03-06T04:55:57.310Z,7.12
2019-03-06T04:56:57.307Z,7.15
2019-03-06T04:57:57.287Z,7.08
2019-03-06T04:58:57.276Z,7.07
2019-03-06T04:59:57.291Z,7.13
2019-03-06T05:00:57.278Z,7.04
2019-03-06T05:01:57.242Z,7.12
2019-03-06T05:02:57.257Z,7.16
2019-03-06T05:03:57.219Z,7.16
2019-03-06T05:04:57.207Z,7.12
2019-03-06T05:05:57.222Z,7.02
2019-03-06T05:06:57.185Z,7.13
2019-03-06T05:07:57.178Z,7.07
2019-03-06T05:08:57.182Z,7.07
2019-03-06T05:09:57.151Z,7.07
2019-03-06T05:10:57.165Z,7.08
2019-03-06T05:11:57.153Z,7.13
2019-03-06T05:12:57.118Z,7.19
2019-03-06T05:13:57.109Z,7.15
2019-03-06T05:14:57.102Z,7.12
2019-03-06T05:15:57.107Z,7.13
2019-03-06T05:16:57.072Z,7.15
2019-03-06T05:17:57.061Z,7.16
2019-03-06T05:18:57.049Z,7.08
2019-03-06T05:19:57.043Z,7.08
2019-03-06T05:20:57.091Z,6.99
2019-03-06T05:21:57.015Z,7.04
2019-03-06T05:22:57.005Z,7.01
2019-03-06T05:23:56.994Z,7.04
2019-03-06T05:24:56.988Z,6.98
2019-03-06T05:25:56.991Z,7.05
2019-03-06T05:26:56.967Z,7.07
2019-03-06T05:27:56.948Z,7.01
2019-03-06T05:28:56.940Z,6.98
2019-03-06T05:29:56.925Z,7.08
2019-03-06T05:30:56.938Z,7.04
2019-03-06T05:31:56.905Z,7.15
2019-03-06T05:32:56.958Z,7.09
2019-03-06T05:33:56.883Z,7.13
2019-03-06T05:34:56.868Z,7.16
2019-03-06T05:35:56.884Z,7.13
2019-03-06T05:36:56.858Z,7.02
2019-03-06T05:37:56.835Z,7.16
2019-03-06T05:38:56.839Z,7.19
2019-03-06T05:39:56.813Z,7.32
2019-03-06T05:40:56.834Z,7.38
2019-03-06T05:41:56.790Z,7.41
2019-03-06T05:42:56.778Z,7.40
2019-03-06T05:43:56.767Z,7.35
2019-03-06T05:44:56.769Z,7.37
2019-03-06T05:45:56.748Z,7.40
2019-03-06T05:46:56.758Z,7.38
2019-03-06T05:47:56.722Z,7.40
2019-03-06T05:48:56.712Z,7.49
2019-03-06T05:49:56.702Z,7.47
2019-03-06T05:50:56.708Z,7.42
2019-03-06T05:51:56.702Z,7.50
2019-03-06T05:52:56.675Z,7.49
2019-03-06T05:53:56.654Z,7.52
2019-03-06T05:54:56.643Z,7.42
2019-03-06T05:55:56.634Z,7.44
2019-03-06T05:56:56.649Z,7.41
2019-03-06T05:57:56.614Z,7.40
2019-03-06T05:58:56.601Z,7.45
2019-03-06T05:59:56.588Z,7.37
2019-03-06T06:00:56.581Z,7.47
2019-03-06T06:01:56.635Z,7.45
2019-03-06T06:02:56.591Z,7.47
2019-03-06T06:03:56.545Z,7.45
2019-03-06T06:04:56.528Z,7.52
2019-03-06T06:05:56.517Z,7.42
2019-03-06T06:06:56.530Z,7.49
2019-03-06T06:07:56.509Z,7.49
2019-03-06T06:08:56.500Z,7.45
2019-03-06T06:09:56.473Z,7.52
2019-03-06T06:10:56.462Z,7.49
2019-03-06T06:11:56.475Z,7.42
2019-03-06T06:12:56.444Z,7.56
2019-03-06T06:13:56.427Z,7.49
2019-03-06T06:14:56.544Z,7.52
2019-03-06T06:15:56.406Z,7.53
2019-03-06T06:16:56.419Z,7.53
2019-03-06T06:17:56.388Z,7.49
2019-03-06T06:18:56.374Z,7.49
2019-03-06T06:19:56.359Z,7.55
2019-03-06T06:20:56.462Z,7.67
2019-03-06T06:21:56.360Z,7.60
2019-03-06T06:22:57.290Z,7.71
2019-03-06T06:23:56.454Z,7.69
2019-03-06T06:24:56.302Z,7.53
2019-03-06T06:25:56.291Z,7.69
2019-03-06T06:26:56.302Z,7.58
2019-03-06T06:27:56.269Z,7.59
2019-03-06T06:28:56.311Z,7.60
2019-03-06T06:29:56.247Z,7.67
2019-03-06T06:30:56.234Z,7.69
2019-03-06T06:31:56.255Z,7.62
2019-03-06T06:32:56.212Z,7.77
2019-03-06T06:33:56.202Z,7.72
2019-03-06T06:34:56.195Z,7.81
2019-03-06T06:35:56.182Z,7.82
2019-03-06T06:36:56.194Z,7.82
2019-03-06T06:37:56.211Z,7.78
2019-03-06T06:38:56.146Z,7.74
2019-03-06T06:39:56.173Z,7.66
2019-03-06T06:40:56.131Z,7.56
2019-03-06T06:41:56.327Z,7.59
2019-03-06T06:42:56.149Z,7.67
2019-03-06T06:43:57.512Z,7.63
2019-03-06T06:44:56.768Z,7.69
2019-03-06T06:45:56.068Z,7.69
2019-03-06T06:46:56.084Z,7.59
2019-03-06T06:47:56.128Z,7.63
2019-03-06T06:49:04.645Z,7.52
2019-03-06T06:49:56.026Z,7.56
2019-03-06T06:51:01.753Z,7.67
2019-03-06T06:51:57.001Z,7.66
2019-03-06T06:52:56.009Z,7.74
2019-03-06T06:53:56.000Z,7.72
2019-03-06T06:54:55.996Z,7.67
2019-03-06T06:55:55.960Z,7.67
2019-03-06T06:56:55.957Z,7.67
2019-03-06T06:57:55.972Z,7.79
2019-03-06T06:58:55.928Z,7.81
2019-03-06T06:59:55.919Z,7.75
2019-03-06T07:00:55.901Z,7.77
2019-03-06T07:01:57.147Z,7.75
2019-03-06T07:02:55.909Z,7.82
2019-03-06T07:03:55.875Z,7.89
2019-03-06T07:04:55.860Z,7.90
2019-03-06T07:05:55.846Z,7.78
2019-03-06T07:06:55.870Z,7.85
2019-03-06T07:07:55.839Z,7.92
2019-03-06T07:08:55.892Z,7.99
2019-03-06T07:09:55.800Z,7.89
2019-03-06T07:10:55.783Z,7.92
2019-03-06T07:11:55.834Z,7.82
2019-03-06T07:12:55.787Z,7.89
2019-03-06T07:13:55.759Z,7.87
2019-03-06T07:14:55.738Z,7.84
2019-03-06T07:15:55.768Z,7.97
2019-03-06T07:16:57.523Z,7.94
2019-03-06T07:17:55.735Z,7.94
2019-03-06T07:18:55.699Z,8.07
2019-03-06T07:19:55.687Z,8.08
2019-03-06T07:20:55.743Z,8.04
2019-03-06T07:21:55.663Z,8.07
2019-03-06T07:22:55.685Z,8.12
2019-03-06T07:23:55.647Z,8.12
2019-03-06T07:24:55.630Z,8.15
2019-03-06T07:25:55.623Z,8.14
2019-03-06T07:26:55.615Z,8.40
2019-03-06T07:27:55.624Z,8.40
2019-03-06T07:28:55.584Z,8.42
2019-03-06T07:29:55.577Z,8.51
2019-03-06T07:30:55.568Z,8.54
2019-03-06T07:31:55.560Z,8.63
2019-03-06T07:32:55.569Z,8.66
2019-03-06T07:33:55.553Z,8.79
2019-03-06T07:34:55.522Z,8.94
2019-03-06T07:35:55.510Z,9.02
2019-03-06T07:36:55.494Z,9.28
2019-03-06T07:37:55.493Z,9.28
2019-03-06T07:38:55.498Z,9.39
2019-03-06T07:39:55.463Z,9.28
2019-03-06T07:40:55.453Z,9.25
2019-03-06T07:41:55.446Z,9.30
2019-03-06T07:42:55.428Z,9.46
2019-03-06T07:43:55.450Z,9.79
2019-03-06T07:44:55.425Z,9.81
2019-03-06T07:45:55.390Z,9.97
2019-03-06T07:46:55.381Z,10.25
2019-03-06T07:47:55.369Z,10.28
2019-03-06T07:48:55.379Z,10.06
2019-03-06T07:49:55.363Z,9.91
2019-03-06T07:50:55.339Z,9.79
2019-03-06T07:51:55.331Z,9.97
2019-03-06T07:52:55.341Z,10.01
2019-03-06T07:53:55.338Z,10.15
2019-03-06T07:54:55.317Z,10.14
2019-03-06T07:55:55.288Z,10.32
2019-03-06T07:56:55.275Z,10.17
2019-03-06T07:57:55.283Z,10.25
2019-03-06T07:58:55.275Z,10.39
2019-03-06T07:59:55.243Z,10.51
2019-03-06T08:00:55.238Z,10.26
2019-03-06T08:01:55.224Z,10.12
2019-03-06T08:02:55.207Z,10.14
2019-03-06T08:03:55.250Z,10.07
2019-03-06T08:04:55.182Z,10.25
2019-03-06T08:05:55.196Z,10.21
2019-03-06T08:06:55.168Z,10.42
2019-03-06T08:07:55.150Z,10.42
2019-03-06T08:08:55.145Z,10.62
2019-03-06T08:09:55.234Z,10.78
2019-03-06T08:10:55.119Z,10.76
2019-03-06T08:11:55.118Z,10.74
2019-03-06T08:12:55.098Z,10.62
2019-03-06T08:13:55.093Z,10.65
2019-03-06T08:14:55.097Z,10.60
2019-03-06T08:15:55.081Z,10.63
2019-03-06T08:16:55.062Z,10.65
2019-03-06T08:17:55.049Z,10.88
2019-03-06T08:18:56.016Z,11.06
2019-03-06T08:19:55.052Z,11.11
2019-03-06T08:20:55.006Z,11.27
2019-03-06T08:21:54.999Z,11.44
2019-03-06T08:22:55.000Z,11.36
2019-03-06T08:23:54.975Z,11.32
2019-03-06T08:24:55.003Z,11.29
2019-03-06T08:25:54.964Z,11.52
2019-03-06T08:26:54.959Z,11.49
2019-03-06T08:27:54.930Z,11.64
2019-03-06T08:28:54.922Z,11.82
2019-03-06T08:29:54.910Z,11.85
2019-03-06T08:30:54.947Z,11.86
2019-03-06T08:31:54.888Z,11.85
2019-03-06T08:32:54.877Z,11.78
2019-03-06T08:33:54.889Z,11.72
2019-03-06T08:34:54.854Z,11.67
2019-03-06T08:35:54.865Z,11.75
2019-03-06T08:36:54.832Z,11.65
2019-03-06T08:37:54.819Z,11.78
2019-03-06T08:38:54.840Z,11.85
2019-03-06T08:39:54.802Z,11.87
2019-03-06T08:41:03.570Z,11.94
2019-03-06T08:41:55.791Z,12.33
2019-03-06T08:42:54.761Z,12.41
2019-03-06T08:43:54.761Z,12.54
2019-03-06T08:44:54.738Z,12.23
2019-03-06T08:45:54.752Z,12.23
2019-03-06T08:46:54.724Z,12.24
2019-03-06T08:47:54.712Z,12.21
2019-03-06T08:48:54.698Z,12.31
2019-03-06T08:49:55.301Z,12.54
2019-03-06T08:50:54.716Z,12.67
2019-03-06T08:51:54.662Z,12.41
2019-03-06T08:52:54.650Z,12.23
2019-03-06T08:53:54.701Z,12.05
2019-03-06T08:54:54.627Z,12.06
2019-03-06T08:55:54.638Z,12.02
2019-03-06T08:56:54.603Z,11.94
2019-03-06T08:57:54.602Z,12.09
2019-03-06T08:58:57.124Z,12.31
2019-03-06T08:59:57.109Z,12.46
2019-03-06T09:00:54.655Z,12.59
2019-03-06T09:02:00.476Z,12.69
2019-03-06T09:02:55.546Z,12.88
2019-03-06T09:03:54.530Z,13.09
2019-03-06T09:05:09.655Z,13.17
2019-03-06T09:05:54.629Z,13.06
2019-03-06T09:08:21.626Z,12.75
2019-03-06T09:09:10.480Z,12.74
2019-03-06T09:10:13.444Z,12.69
2019-03-06T09:11:10.473Z,12.71
2019-03-06T09:12:10.446Z,12.88
2019-03-06T09:13:10.435Z,12.88
2019-03-06T09:14:10.415Z,12.79
2019-03-06T09:15:10.412Z,12.62
2019-03-06T09:16:10.418Z,12.29
2019-03-06T09:17:10.415Z,12.52
2019-03-06T09:18:10.366Z,12.74
2019-03-06T09:19:10.353Z,12.85
2019-03-06T09:20:10.341Z,12.78
2019-03-06T09:21:10.538Z,12.96
2019-03-06T09:22:10.347Z,12.67
2019-03-06T09:23:10.309Z,12.54
2019-03-06T09:24:10.325Z,12.13
2019-03-06T09:25:10.287Z,12.05
2019-03-06T09:26:10.355Z,12.08
2019-03-06T09:27:10.286Z,12.05
2019-03-06T09:28:10.255Z,12.27
2019-03-06T09:29:10.243Z,12.23
2019-03-06T09:30:16.065Z,12.52
2019-03-06T09:31:11.247Z,12.59
2019-03-06T09:32:10.217Z,12.57
2019-03-06T09:33:10.209Z,12.31
2019-03-06T09:34:10.202Z,12.57
2019-03-06T09:35:10.200Z,12.57
2019-03-06T09:36:10.167Z,12.34
2019-03-06T09:37:10.211Z,12.33
2019-03-06T09:38:11.222Z,12.29
2019-03-06T09:39:10.135Z,12.37
2019-03-06T09:40:10.130Z,12.57
2019-03-06T09:41:10.129Z,12.74
2019-03-06T09:42:10.119Z,12.63
2019-03-06T09:43:10.088Z,12.56
2019-03-06T09:44:10.079Z,12.31
2019-03-06T09:45:10.066Z,12.37
2019-03-06T09:46:10.095Z,12.15
2019-03-06T09:47:10.111Z,12.11
2019-03-06T09:48:10.034Z,11.83
2019-03-06T09:49:11.791Z,11.87
2019-03-06T09:50:10.007Z,11.74
2019-03-06T09:51:09.996Z,11.70
2019-03-06T09:52:10.039Z,11.83
2019-03-06T09:53:09.975Z,11.94
2019-03-06T09:54:09.970Z,12.20
2019-03-06T09:55:09.955Z,12.24
2019-03-06T09:56:09.955Z,12.20
2019-03-06T09:57:09.973Z,11.93
2019-03-06T09:58:09.931Z,11.74
2019-03-06T09:59:09.969Z,11.80
2019-03-06T10:00:09.923Z,11.85
2019-03-06T10:01:10.455Z,11.82
2019-03-06T10:02:09.896Z,11.74
2019-03-06T10:03:09.864Z,11.72
2019-03-06T10:04:09.853Z,11.61
2019-03-06T10:05:09.845Z,11.54
2019-03-06T10:06:09.885Z,11.54
2019-03-06T10:07:09.819Z,11.50
2019-03-06T10:08:09.842Z,11.49
2019-03-06T10:09:09.827Z,11.59
2019-03-06T10:10:09.783Z,11.77
2019-03-06T10:11:09.781Z,11.80
2019-03-06T10:12:09.763Z,11.68
2019-03-06T10:13:09.775Z,11.59
2019-03-06T10:14:09.742Z,11.68
2019-03-06T10:15:09.769Z,11.72
2019-03-06T10:16:09.724Z,11.82
2019-03-06T10:17:09.709Z,11.97
2019-03-06T10:18:09.725Z,11.90
2019-03-06T10:19:09.685Z,11.90
2019-03-06T10:20:09.673Z,11.83
2019-03-06T10:21:09.661Z,11.86
2019-03-06T10:22:09.689Z,11.62
2019-03-06T10:23:09.664Z,11.56
2019-03-06T10:24:09.668Z,11.54
2019-03-06T10:25:09.617Z,11.64
2019-03-06T10:26:09.612Z,11.43
2019-03-06T10:27:09.614Z,11.59
2019-03-06T10:28:09.609Z,11.65
2019-03-06T10:29:09.600Z,11.78
2019-03-06T10:30:09.734Z,11.82
2019-03-06T10:31:09.558Z,11.86
2019-03-06T10:32:09.564Z,11.82
2019-03-06T10:33:09.549Z,11.78
2019-03-06T10:34:09.540Z,11.77
2019-03-06T10:35:09.549Z,11.74
2019-03-06T10:36:09.495Z,11.94
2019-03-06T10:37:09.488Z,11.83
2019-03-06T10:38:16.448Z,11.82
2019-03-06T10:39:10.480Z,11.83
2019-03-06T10:40:10.022Z,11.77
2019-03-06T10:41:12.603Z,11.71
2019-03-06T10:42:09.559Z,11.75
2019-03-06T10:43:09.413Z,11.77
2019-03-06T10:44:09.428Z,11.70
2019-03-06T10:45:09.406Z,11.85
2019-03-06T10:46:09.381Z,11.83
2019-03-06T10:47:09.382Z,11.82
2019-03-06T10:48:13.569Z,11.72
2019-03-06T10:49:09.373Z,11.72
2019-03-06T10:50:09.347Z,11.72
2019-03-06T10:51:09.322Z,11.78
2019-03-06T10:52:09.315Z,11.71
2019-03-06T10:53:09.314Z,11.65
2019-03-06T10:54:09.317Z,11.61
2019-03-06T10:55:09.276Z,11.59
2019-03-06T10:56:09.264Z,11.54
2019-03-06T10:57:09.259Z,11.54
2019-03-06T10:58:09.242Z,11.56
2019-03-06T10:59:09.262Z,11.61
2019-03-06T11:00:09.450Z,11.61
2019-03-06T11:01:09.314Z,11.65
2019-03-06T11:02:09.411Z,11.61
2019-03-06T11:03:09.188Z,11.56
2019-03-06T11:04:09.197Z,11.62
2019-03-06T11:05:09.162Z,11.57
2019-03-06T11:06:09.152Z,11.64
2019-03-06T11:07:09.141Z,11.62
2019-03-06T11:08:09.136Z,11.59
2019-03-06T11:09:09.178Z,11.67
2019-03-06T11:10:09.106Z,11.75
2019-03-06T11:11:09.097Z,11.82
2019-03-06T11:12:09.096Z,11.68
2019-03-06T11:13:09.188Z,11.78
2019-03-06T11:14:09.091Z,11.80
2019-03-06T11:15:09.054Z,11.89
2019-03-06T11:16:09.040Z,11.94
2019-03-06T11:17:09.026Z,12.05
2019-03-06T11:18:09.016Z,12.08
2019-03-06T11:19:09.165Z,12.21
2019-03-06T11:20:09.028Z,12.30
2019-03-06T11:21:08.980Z,12.67
2019-03-06T11:22:08.969Z,12.92
2019-03-06T11:23:08.957Z,13.11
2019-03-06T11:24:08.946Z,12.92
2019-03-06T11:25:08.956Z,13.00
2019-03-06T11:26:08.937Z,12.75
2019-03-06T11:27:08.913Z,13.02
2019-03-06T11:28:08.901Z,12.85
2019-03-06T11:29:08.891Z,13.02
2019-03-06T11:30:08.910Z,13.09
2019-03-06T11:31:08.866Z,13.11
2019-03-06T11:32:08.858Z,13.15
2019-03-06T11:33:08.863Z,13.33
2019-03-06T11:34:08.833Z,13.32
2019-03-06T11:35:08.843Z,13.33
2019-03-06T11:36:08.875Z,13.38
2019-03-06T11:37:08.801Z,13.47
2019-03-06T11:38:08.789Z,13.49
2019-03-06T11:39:08.795Z,13.73
2019-03-06T11:40:08.803Z,13.81
2019-03-06T11:41:08.754Z,13.61
2019-03-06T11:42:08.745Z,13.56
2019-03-06T11:43:08.753Z,13.59
2019-03-06T11:44:08.731Z,13.71
2019-03-06T11:45:08.732Z,13.77
2019-03-06T11:46:08.702Z,13.67
2019-03-06T11:47:08.687Z,13.59
2019-03-06T11:48:08.677Z,14.07
2019-03-06T11:49:08.682Z,14.34
2019-03-06T11:50:08.677Z,14.28
2019-03-06T11:51:08.649Z,14.14
2019-03-06T11:52:08.641Z,14.10
2019-03-06T11:53:08.666Z,13.98
2019-03-06T11:54:08.665Z,13.91
2019-03-06T11:55:08.631Z,14.13
2019-03-06T11:56:08.637Z,14.12
2019-03-06T11:57:08.577Z,14.44
2019-03-06T11:58:08.565Z,14.50
2019-03-06T11:59:08.593Z,14.65
2019-03-06T12:00:08.569Z,14.64
2019-03-06T12:01:08.616Z,14.50
2019-03-06T12:02:08.521Z,14.46
2019-03-06T12:03:08.510Z,14.88
2019-03-06T12:04:08.501Z,14.88
2019-03-06T12:05:08.789Z,14.90
2019-03-06T12:06:08.620Z,15.17
2019-03-06T12:07:08.467Z,14.99
2019-03-06T12:08:08.471Z,14.93
2019-03-06T12:09:08.445Z,14.95
2019-03-06T12:10:08.437Z,15.09
2019-03-06T12:11:08.962Z,14.74
2019-03-06T12:12:08.415Z,14.65
2019-03-06T12:13:08.401Z,14.75
2019-03-06T12:14:08.536Z,14.87
2019-03-06T12:15:08.417Z,14.71
2019-03-06T12:16:08.905Z,14.72
2019-03-06T12:17:08.373Z,14.50
2019-03-06T12:18:08.352Z,14.50
2019-03-06T12:19:08.338Z,14.35
2019-03-06T12:20:08.608Z,14.31
2019-03-06T12:21:08.352Z,14.16
2019-03-06T12:22:08.306Z,14.34
2019-03-06T12:23:08.291Z,14.32
2019-03-06T12:24:08.276Z,14.52
2019-03-06T12:25:08.265Z,14.54
2019-03-06T12:26:08.292Z,14.16
2019-03-06T12:27:08.247Z,14.13
2019-03-06T12:28:08.241Z,14.09
2019-03-06T12:29:08.224Z,14.16
2019-03-06T12:30:08.239Z,14.17
2019-03-06T12:31:08.224Z,14.02
2019-03-06T12:32:08.189Z,14.01
2019-03-06T12:33:08.192Z,13.77
2019-03-06T12:34:08.169Z,13.79
2019-03-06T12:35:08.154Z,13.74
2019-03-06T12:36:08.171Z,13.69
2019-03-06T12:37:08.133Z,13.55
2019-03-06T12:38:08.121Z,13.56
2019-03-06T12:39:08.116Z,13.52
2019-03-06T12:40:12.317Z,13.55
2019-03-06T12:41:09.111Z,13.55
2019-03-06T12:42:14.228Z,13.55
2019-03-06T12:43:09.065Z,13.51
2019-03-06T12:44:10.657Z,13.32
2019-03-06T12:45:08.113Z,13.37
2019-03-06T12:46:08.057Z,13.22
2019-03-06T12:47:08.022Z,13.27
2019-03-06T12:48:08.010Z,13.15
2019-03-06T12:49:08.006Z,13.12
2019-03-06T12:50:07.994Z,13.14
2019-03-06T12:51:08.010Z,13.20
2019-03-06T12:52:07.966Z,13.06
2019-03-06T12:53:07.980Z,13.09
2019-03-06T12:54:07.978Z,13.06
2019-03-06T12:55:07.933Z,13.07
2019-03-06T12:56:07.948Z,13.06
2019-03-06T12:57:08.020Z,13.07
2019-03-06T12:58:07.899Z,12.92
2019-03-06T12:59:07.888Z,12.93
2019-03-06T13:00:07.903Z,12.93
2019-03-06T13:01:07.877Z,12.96
2019-03-06T13:02:07.891Z,13.02
2019-03-06T13:03:07.843Z,12.95
2019-03-06T13:04:07.833Z,12.93
2019-03-06T13:05:07.837Z,13.03
2019-03-06T13:06:07.810Z,13.03
2019-03-06T13:07:07.823Z,13.04
2019-03-06T13:08:07.795Z,13.18